sensor_id;sensor_type;location;lat;lon;timestamp;P1;durP1;ratioP1;P2;durP2;ratioP2
151;SDS011;68;48.792;9.164;2022-11-18T00:02:13;1.85;;;1.75;;
151;SDS011;68;48.792;9.164;2022-11-18T00:04:40;2.10;;;2.00;;
151;SDS011;68;48.792;9.164;2022-11-18T00:07:07;1.92;;;1.80;;
151;SDS011;68;48.792;9.164;2022-11-18T00:09:34;2.00;;;1.90;;
151;SDS011;68;48.792;9.164;2022-11-18T00:12:00;3.70;;;1.90;;
151;SDS011;68;48.792;9.164;2022-11-18T00:14:46;2.00;;;1.90;;
151;SDS011;68;48.792;9.164;2022-11-18T00:17:13;1.95;;;1.85;;
151;SDS011;68;48.792;9.164;2022-11-18T00:19:40;2.22;;;1.90;;
151;SDS011;68;48.792;9.164;2022-11-18T00:22:08;1.88;;;1.88;;
151;SDS011;68;48.792;9.164;2022-11-18T00:24:38;2.20;;;2.00;;
151;SDS011;68;48.792;9.164;2022-11-18T00:27:05;2.35;;;2.15;;
151;SDS011;68;48.792;9.164;2022-11-18T00:29:32;3.38;;;2.00;;
151;SDS011;68;48.792;9.164;2022-11-18T00:32:00;2.35;;;1.90;;
151;SDS011;68;48.792;9.164;2022-11-18T00:34:26;2.00;;;1.90;;
151;SDS011;68;48.792;9.164;2022-11-18T00:36:53;2.05;;;1.95;;
151;SDS011;68;48.792;9.164;2022-11-18T00:39:20;3.42;;;1.98;;
151;SDS011;68;48.792;9.164;2022-11-18T00:41:47;2.20;;;2.00;;
151;SDS011;68;48.792;9.164;2022-11-18T00:44:31;2.15;;;1.95;;
151;SDS011;68;48.792;9.164;2022-11-18T00:47:00;2.30;;;2.00;;
151;SDS011;68;48.792;9.164;2022-11-18T00:49:27;2.90;;;2.15;;
151;SDS011;68;48.792;9.164;2022-11-18T00:51:54;2.05;;;1.92;;
151;SDS011;68;48.792;9.164;2022-11-18T00:54:21;2.30;;;2.10;;
151;SDS011;68;48.792;9.164;2022-11-18T00:56:48;2.25;;;2.05;;
151;SDS011;68;48.792;9.164;2022-11-18T00:59:14;2.33;;;2.17;;
151;SDS011;68;48.792;9.164;2022-11-18T01:01:41;2.75;;;2.00;;
151;SDS011;68;48.792;9.164;2022-11-18T01:04:10;3.28;;;2.30;;
151;SDS011;68;48.792;9.164;2022-11-18T01:06:36;2.88;;;2.10;;
151;SDS011;68;48.792;9.164;2022-11-18T01:09:03;2.55;;;2.10;;
151;SDS011;68;48.792;9.164;2022-11-18T01:11:30;2.88;;;2.13;;
151;SDS011;68;48.792;9.164;2022-11-18T01:14:14;4.15;;;2.38;;
151;SDS011;68;48.792;9.164;2022-11-18T01:16:41;2.20;;;2.10;;
151;SDS011;68;48.792;9.164;2022-11-18T01:19:10;3.28;;;2.05;;
151;SDS011;68;48.792;9.164;2022-11-18T01:21:37;2.40;;;2.20;;
151;SDS011;68;48.792;9.164;2022-11-18T01:24:05;2.50;;;2.20;;
151;SDS011;68;48.792;9.164;2022-11-18T01:26:31;1.85;;;1.80;;
151;SDS011;68;48.792;9.164;2022-11-18T01:28:58;3.78;;;2.33;;
151;SDS011;68;48.792;9.164;2022-11-18T01:31:25;2.28;;;2.08;;
151;SDS011;68;48.792;9.164;2022-11-18T01:33:52;2.42;;;2.17;;
151;SDS011;68;48.792;9.164;2022-11-18T01:36:20;3.95;;;2.53;;
151;SDS011;68;48.792;9.164;2022-11-18T01:38:48;3.78;;;2.20;;
151;SDS011;68;48.792;9.164;2022-11-18T01:41:16;2.72;;;1.95;;
151;SDS011;68;48.792;9.164;2022-11-18T01:43:46;3.38;;;2.15;;
151;SDS011;68;48.792;9.164;2022-11-18T01:46:14;2.22;;;2.10;;
151;SDS011;68;48.792;9.164;2022-11-18T01:48:41;2.83;;;1.98;;
151;SDS011;68;48.792;9.164;2022-11-18T01:51:11;2.20;;;2.10;;
151;SDS011;68;48.792;9.164;2022-11-18T01:53:43;2.10;;;1.95;;
151;SDS011;68;48.792;9.164;2022-11-18T01:56:13;2.50;;;2.03;;
151;SDS011;68;48.792;9.164;2022-11-18T01:58:44;2.13;;;2.00;;
151;SDS011;68;48.792;9.164;2022-11-18T02:01:15;7.43;;;2.05;;
151;SDS011;68;48.792;9.164;2022-11-18T02:03:41;2.45;;;1.80;;
151;SDS011;68;48.792;9.164;2022-11-18T02:06:10;3.53;;;1.80;;
151;SDS011;68;48.792;9.164;2022-11-18T02:08:38;2.50;;;1.80;;
151;SDS011;68;48.792;9.164;2022-11-18T02:11:09;3.30;;;1.70;;
151;SDS011;68;48.792;9.164;2022-11-18T02:13:58;4.28;;;2.00;;
151;SDS011;68;48.792;9.164;2022-11-18T02:16:30;3.13;;;1.98;;
151;SDS011;68;48.792;9.164;2022-11-18T02:19:09;3.60;;;1.60;;
151;SDS011;68;48.792;9.164;2022-11-18T02:21:49;4.65;;;1.92;;
151;SDS011;68;48.792;9.164;2022-11-18T02:31:04;2.30;;;1.60;;
151;SDS011;68;48.792;9.164;2022-11-18T02:33:37;9.73;;;1.80;;
151;SDS011;68;48.792;9.164;2022-11-18T02:36:11;4.85;;;2.00;;
151;SDS011;68;48.792;9.164;2022-11-18T02:38:43;2.45;;;1.80;;
151;SDS011;68;48.792;9.164;2022-11-18T02:41:14;3.58;;;1.70;;
151;SDS011;68;48.792;9.164;2022-11-18T02:43:45;2.40;;;1.85;;
151;SDS011;68;48.792;9.164;2022-11-18T02:46:16;2.55;;;1.92;;
151;SDS011;68;48.792;9.164;2022-11-18T02:48:46;6.00;;;1.90;;
151;SDS011;68;48.792;9.164;2022-11-18T02:51:15;10.70;;;1.88;;
151;SDS011;68;48.792;9.164;2022-11-18T02:53:46;8.45;;;1.95;;
151;SDS011;68;48.792;9.164;2022-11-18T02:56:14;4.90;;;1.83;;
151;SDS011;68;48.792;9.164;2022-11-18T02:58:42;1.70;;;1.67;;
151;SDS011;68;48.792;9.164;2022-11-18T03:01:13;1.60;;;1.50;;
151;SDS011;68;48.792;9.164;2022-11-18T03:03:44;4.47;;;2.03;;
151;SDS011;68;48.792;9.164;2022-11-18T03:06:12;3.20;;;1.90;;
151;SDS011;68;48.792;9.164;2022-11-18T03:08:51;1.95;;;1.80;;
151;SDS011;68;48.792;9.164;2022-11-18T03:11:25;1.67;;;1.60;;
151;SDS011;68;48.792;9.164;2022-11-18T03:14:00;3.67;;;2.03;;
151;SDS011;68;48.792;9.164;2022-11-18T03:16:35;3.70;;;1.70;;
151;SDS011;68;48.792;9.164;2022-11-18T03:19:11;1.73;;;1.70;;
151;SDS011;68;48.792;9.164;2022-11-18T03:21:46;4.57;;;2.13;;
151;SDS011;68;48.792;9.164;2022-11-18T03:24:22;2.50;;;1.88;;
151;SDS011;68;48.792;9.164;2022-11-18T03:26:54;4.15;;;2.00;;
151;SDS011;68;48.792;9.164;2022-11-18T03:29:30;1.80;;;1.70;;
151;SDS011;68;48.792;9.164;2022-11-18T03:32:03;2.40;;;1.80;;
151;SDS011;68;48.792;9.164;2022-11-18T03:34:33;2.53;;;1.90;;
151;SDS011;68;48.792;9.164;2022-11-18T03:37:04;6.63;;;1.77;;
151;SDS011;68;48.792;9.164;2022-11-18T03:39:34;2.90;;;1.65;;
151;SDS011;68;48.792;9.164;2022-11-18T03:42:05;5.82;;;1.90;;
151;SDS011;68;48.792;9.164;2022-11-18T03:44:37;2.25;;;1.80;;
151;SDS011;68;48.792;9.164;2022-11-18T03:47:10;2.50;;;1.80;;
151;SDS011;68;48.792;9.164;2022-11-18T03:49:42;2.50;;;1.90;;
151;SDS011;68;48.792;9.164;2022-11-18T03:52:13;2.55;;;1.70;;
151;SDS011;68;48.792;9.164;2022-11-18T03:54:44;2.53;;;2.20;;
151;SDS011;68;48.792;9.164;2022-11-18T03:57:14;5.43;;;2.90;;
151;SDS011;68;48.792;9.164;2022-11-18T03:59:46;3.00;;;1.65;;
151;SDS011;68;48.792;9.164;2022-11-18T04:02:18;6.53;;;2.83;;
151;SDS011;68;48.792;9.164;2022-11-18T04:04:48;3.13;;;1.80;;
151;SDS011;68;48.792;9.164;2022-11-18T04:07:19;1.98;;;1.58;;
151;SDS011;68;48.792;9.164;2022-11-18T04:09:52;2.25;;;1.83;;
151;SDS011;68;48.792;9.164;2022-11-18T04:12:22;1.83;;;1.52;;
151;SDS011;68;48.792;9.164;2022-11-18T04:14:52;5.10;;;1.70;;
151;SDS011;68;48.792;9.164;2022-11-18T04:17:22;2.20;;;1.60;;
151;SDS011;68;48.792;9.164;2022-11-18T04:19:52;1.80;;;1.70;;
151;SDS011;68;48.792;9.164;2022-11-18T04:22:19;2.65;;;1.73;;
151;SDS011;68;48.792;9.164;2022-11-18T04:24:46;1.60;;;1.40;;
151;SDS011;68;48.792;9.164;2022-11-18T04:27:12;2.40;;;1.50;;
151;SDS011;68;48.792;9.164;2022-11-18T04:29:39;2.67;;;1.50;;
151;SDS011;68;48.792;9.164;2022-11-18T04:32:06;1.65;;;1.50;;
151;SDS011;68;48.792;9.164;2022-11-18T04:34:34;2.83;;;1.60;;
151;SDS011;68;48.792;9.164;2022-11-18T04:37:01;1.80;;;1.70;;
151;SDS011;68;48.792;9.164;2022-11-18T04:39:28;2.60;;;1.65;;
151;SDS011;68;48.792;9.164;2022-11-18T04:41:54;3.15;;;1.90;;
151;SDS011;68;48.792;9.164;2022-11-18T04:44:21;1.50;;;1.50;;
151;SDS011;68;48.792;9.164;2022-11-18T04:46:49;3.67;;;1.58;;
151;SDS011;68;48.792;9.164;2022-11-18T04:49:16;7.05;;;1.60;;
151;SDS011;68;48.792;9.164;2022-11-18T04:51:44;1.70;;;1.60;;
151;SDS011;68;48.792;9.164;2022-11-18T04:54:12;1.80;;;1.70;;
151;SDS011;68;48.792;9.164;2022-11-18T04:56:39;2.83;;;1.80;;
151;SDS011;68;48.792;9.164;2022-11-18T04:59:07;3.05;;;1.60;;
151;SDS011;68;48.792;9.164;2022-11-18T05:01:34;1.70;;;1.60;;
151;SDS011;68;48.792;9.164;2022-11-18T05:04:01;1.80;;;1.60;;
151;SDS011;68;48.792;9.164;2022-11-18T05:06:29;2.13;;;1.70;;
151;SDS011;68;48.792;9.164;2022-11-18T05:08:57;1.70;;;1.60;;
151;SDS011;68;48.792;9.164;2022-11-18T05:11:25;1.70;;;1.50;;
151;SDS011;68;48.792;9.164;2022-11-18T05:14:10;1.95;;;1.85;;
151;SDS011;68;48.792;9.164;2022-11-18T05:16:37;1.85;;;1.75;;
151;SDS011;68;48.792;9.164;2022-11-18T05:19:04;2.85;;;1.65;;
151;SDS011;68;48.792;9.164;2022-11-18T05:21:31;2.00;;;1.90;;
151;SDS011;68;48.792;9.164;2022-11-18T05:23:59;1.73;;;1.63;;
151;SDS011;68;48.792;9.164;2022-11-18T05:26:27;1.67;;;1.58;;
151;SDS011;68;48.792;9.164;2022-11-18T05:28:54;6.35;;;1.90;;
151;SDS011;68;48.792;9.164;2022-11-18T05:31:21;1.90;;;1.80;;
151;SDS011;68;48.792;9.164;2022-11-18T05:33:48;2.90;;;1.88;;
151;SDS011;68;48.792;9.164;2022-11-18T05:36:15;1.92;;;1.83;;
151;SDS011;68;48.792;9.164;2022-11-18T05:38:44;3.35;;;1.60;;
151;SDS011;68;48.792;9.164;2022-11-18T05:41:13;1.88;;;1.70;;
151;SDS011;68;48.792;9.164;2022-11-18T05:44:00;2.03;;;1.60;;
151;SDS011;68;48.792;9.164;2022-11-18T05:46:26;1.92;;;1.70;;
151;SDS011;68;48.792;9.164;2022-11-18T05:48:53;2.60;;;1.88;;
151;SDS011;68;48.792;9.164;2022-11-18T05:51:20;2.00;;;1.90;;
151;SDS011;68;48.792;9.164;2022-11-18T05:53:47;8.98;;;6.43;;
151;SDS011;68;48.792;9.164;2022-11-18T05:56:18;2.05;;;1.95;;
151;SDS011;68;48.792;9.164;2022-11-18T05:58:46;1.90;;;1.80;;
151;SDS011;68;48.792;9.164;2022-11-18T06:01:14;5.28;;;1.92;;
151;SDS011;68;48.792;9.164;2022-11-18T06:03:42;2.40;;;1.70;;
151;SDS011;68;48.792;9.164;2022-11-18T06:06:09;3.45;;;1.80;;
151;SDS011;68;48.792;9.164;2022-11-18T06:08:39;2.58;;;1.85;;
151;SDS011;68;48.792;9.164;2022-11-18T06:11:11;3.70;;;2.17;;
151;SDS011;68;48.792;9.164;2022-11-18T06:13:44;1.80;;;1.70;;
151;SDS011;68;48.792;9.164;2022-11-18T06:16:15;2.47;;;2.00;;
151;SDS011;68;48.792;9.164;2022-11-18T06:18:44;3.47;;;1.80;;
151;SDS011;68;48.792;9.164;2022-11-18T06:21:11;2.28;;;2.08;;
151;SDS011;68;48.792;9.164;2022-11-18T06:23:38;3.55;;;1.90;;
151;SDS011;68;48.792;9.164;2022-11-18T06:26:07;2.20;;;2.00;;
151;SDS011;68;48.792;9.164;2022-11-18T06:28:36;2.28;;;2.08;;
151;SDS011;68;48.792;9.164;2022-11-18T06:31:05;2.38;;;2.20;;
151;SDS011;68;48.792;9.164;2022-11-18T06:33:31;2.20;;;2.00;;
151;SDS011;68;48.792;9.164;2022-11-18T06:35:58;2.42;;;2.03;;
151;SDS011;68;48.792;9.164;2022-11-18T06:38:25;4.25;;;2.00;;
151;SDS011;68;48.792;9.164;2022-11-18T06:40:52;3.88;;;2.30;;
151;SDS011;68;48.792;9.164;2022-11-18T06:43:18;2.10;;;1.95;;
151;SDS011;68;48.792;9.164;2022-11-18T06:46:07;2.30;;;2.10;;
151;SDS011;68;48.792;9.164;2022-11-18T06:48:53;2.30;;;2.10;;
151;SDS011;68;48.792;9.164;2022-11-18T06:51:20;3.45;;;2.17;;
151;SDS011;68;48.792;9.164;2022-11-18T06:53:47;2.88;;;2.10;;
151;SDS011;68;48.792;9.164;2022-11-18T06:56:14;2.88;;;2.22;;
151;SDS011;68;48.792;9.164;2022-11-18T06:58:42;2.15;;;1.98;;
151;SDS011;68;48.792;9.164;2022-11-18T07:01:12;2.25;;;2.05;;
151;SDS011;68;48.792;9.164;2022-11-18T07:03:40;3.95;;;2.10;;
151;SDS011;68;48.792;9.164;2022-11-18T07:06:08;2.10;;;1.92;;
151;SDS011;68;48.792;9.164;2022-11-18T07:08:36;2.30;;;1.92;;
151;SDS011;68;48.792;9.164;2022-11-18T07:11:05;2.67;;;1.90;;
151;SDS011;68;48.792;9.164;2022-11-18T07:13:33;2.03;;;1.90;;
151;SDS011;68;48.792;9.164;2022-11-18T07:16:01;2.10;;;1.98;;
151;SDS011;68;48.792;9.164;2022-11-18T07:18:31;2.25;;;1.92;;
151;SDS011;68;48.792;9.164;2022-11-18T07:21:00;2.20;;;2.00;;
151;SDS011;68;48.792;9.164;2022-11-18T07:23:28;2.72;;;2.30;;
151;SDS011;68;48.792;9.164;2022-11-18T07:25:55;5.70;;;2.70;;
151;SDS011;68;48.792;9.164;2022-11-18T07:28:22;2.35;;;2.20;;
151;SDS011;68;48.792;9.164;2022-11-18T07:30:48;2.20;;;1.98;;
151;SDS011;68;48.792;9.164;2022-11-18T07:33:15;2.00;;;1.90;;
151;SDS011;68;48.792;9.164;2022-11-18T07:35:44;2.00;;;1.90;;
151;SDS011;68;48.792;9.164;2022-11-18T07:38:10;1.77;;;1.70;;
151;SDS011;68;48.792;9.164;2022-11-18T07:40:37;3.25;;;2.10;;
151;SDS011;68;48.792;9.164;2022-11-18T07:43:04;2.15;;;1.90;;
151;SDS011;68;48.792;9.164;2022-11-18T07:45:31;2.03;;;1.92;;
151;SDS011;68;48.792;9.164;2022-11-18T07:47:58;1.95;;;1.85;;
151;SDS011;68;48.792;9.164;2022-11-18T07:50:25;1.77;;;1.67;;
151;SDS011;68;48.792;9.164;2022-11-18T07:52:55;2.42;;;2.30;;
151;SDS011;68;48.792;9.164;2022-11-18T07:55:22;1.95;;;1.88;;
151;SDS011;68;48.792;9.164;2022-11-18T07:57:49;2.28;;;1.83;;
151;SDS011;68;48.792;9.164;2022-11-18T08:00:16;5.28;;;1.88;;
151;SDS011;68;48.792;9.164;2022-11-18T08:02:43;2.38;;;1.88;;
151;SDS011;68;48.792;9.164;2022-11-18T08:05:10;2.60;;;1.70;;
151;SDS011;68;48.792;9.164;2022-11-18T08:07:37;1.80;;;1.70;;
151;SDS011;68;48.792;9.164;2022-11-18T08:10:06;2.20;;;1.67;;
151;SDS011;68;48.792;9.164;2022-11-18T08:12:33;1.73;;;1.67;;
151;SDS011;68;48.792;9.164;2022-11-18T08:15:00;1.70;;;1.60;;
151;SDS011;68;48.792;9.164;2022-11-18T08:17:27;1.80;;;1.70;;
151;SDS011;68;48.792;9.164;2022-11-18T08:19:53;1.73;;;1.65;;
151;SDS011;68;48.792;9.164;2022-11-18T08:22:20;2.58;;;1.70;;
151;SDS011;68;48.792;9.164;2022-11-18T08:24:47;2.40;;;1.80;;
151;SDS011;68;48.792;9.164;2022-11-18T08:27:15;1.80;;;1.70;;
151;SDS011;68;48.792;9.164;2022-11-18T08:29:42;2.00;;;1.90;;
151;SDS011;68;48.792;9.164;2022-11-18T08:32:08;1.75;;;1.67;;
151;SDS011;68;48.792;9.164;2022-11-18T08:34:35;2.42;;;1.83;;
151;SDS011;68;48.792;9.164;2022-11-18T08:37:02;2.80;;;2.13;;
151;SDS011;68;48.792;9.164;2022-11-18T08:39:29;1.80;;;1.70;;
151;SDS011;68;48.792;9.164;2022-11-18T08:41:56;2.70;;;1.80;;
151;SDS011;68;48.792;9.164;2022-11-18T08:44:25;2.00;;;1.90;;
151;SDS011;68;48.792;9.164;2022-11-18T08:46:51;4.07;;;2.40;;
151;SDS011;68;48.792;9.164;2022-11-18T08:49:18;2.35;;;2.15;;
151;SDS011;68;48.792;9.164;2022-11-18T08:51:45;2.90;;;2.20;;
151;SDS011;68;48.792;9.164;2022-11-18T08:54:12;2.40;;;2.08;;
151;SDS011;68;48.792;9.164;2022-11-18T08:56:39;2.35;;;2.20;;
151;SDS011;68;48.792;9.164;2022-11-18T08:59:05;2.50;;;2.30;;
151;SDS011;68;48.792;9.164;2022-11-18T09:01:34;2.47;;;2.28;;
151;SDS011;68;48.792;9.164;2022-11-18T09:04:01;2.05;;;1.92;;
151;SDS011;68;48.792;9.164;2022-11-18T09:06:29;2.53;;;2.20;;
151;SDS011;68;48.792;9.164;2022-11-18T09:08:55;2.33;;;2.13;;
151;SDS011;68;48.792;9.164;2022-11-18T09:11:23;2.30;;;2.10;;
151;SDS011;68;48.792;9.164;2022-11-18T09:13:51;3.15;;;2.30;;
151;SDS011;68;48.792;9.164;2022-11-18T09:16:18;1.95;;;1.90;;
151;SDS011;68;48.792;9.164;2022-11-18T09:18:48;2.00;;;1.90;;
151;SDS011;68;48.792;9.164;2022-11-18T09:21:16;2.50;;;2.10;;
151;SDS011;68;48.792;9.164;2022-11-18T09:23:43;1.63;;;1.60;;
151;SDS011;68;48.792;9.164;2022-11-18T09:26:11;1.85;;;1.70;;
151;SDS011;68;48.792;9.164;2022-11-18T09:28:40;1.98;;;1.90;;
151;SDS011;68;48.792;9.164;2022-11-18T09:31:07;2.42;;;2.15;;
151;SDS011;68;48.792;9.164;2022-11-18T09:33:35;2.20;;;2.00;;
151;SDS011;68;48.792;9.164;2022-11-18T09:36:05;2.00;;;1.90;;
151;SDS011;68;48.792;9.164;2022-11-18T09:38:36;1.88;;;1.77;;
151;SDS011;68;48.792;9.164;2022-11-18T09:41:04;2.40;;;2.20;;
151;SDS011;68;48.792;9.164;2022-11-18T09:43:42;2.33;;;1.70;;
151;SDS011;68;48.792;9.164;2022-11-18T09:46:19;1.98;;;1.88;;
151;SDS011;68;48.792;9.164;2022-11-18T09:48:51;3.67;;;2.22;;
151;SDS011;68;48.792;9.164;2022-11-18T09:51:37;2.40;;;2.20;;
151;SDS011;68;48.792;9.164;2022-11-18T09:54:07;2.50;;;2.30;;
151;SDS011;68;48.792;9.164;2022-11-18T09:56:37;2.50;;;2.30;;
151;SDS011;68;48.792;9.164;2022-11-18T09:59:05;2.50;;;2.03;;
151;SDS011;68;48.792;9.164;2022-11-18T10:01:32;2.10;;;1.95;;
151;SDS011;68;48.792;9.164;2022-11-18T10:04:01;3.70;;;3.25;;
151;SDS011;68;48.792;9.164;2022-11-18T10:06:28;3.53;;;3.10;;
151;SDS011;68;48.792;9.164;2022-11-18T10:09:05;2.90;;;2.70;;
151;SDS011;68;48.792;9.164;2022-11-18T10:11:44;2.70;;;2.50;;
151;SDS011;68;48.792;9.164;2022-11-18T10:14:18;2.35;;;2.15;;
151;SDS011;68;48.792;9.164;2022-11-18T10:16:55;2.67;;;2.20;;
151;SDS011;68;48.792;9.164;2022-11-18T10:19:29;4.22;;;3.45;;
151;SDS011;68;48.792;9.164;2022-11-18T10:22:10;6.53;;;4.65;;
151;SDS011;68;48.792;9.164;2022-11-18T10:24:48;7.75;;;4.97;;
151;SDS011;68;48.792;9.164;2022-11-18T10:27:16;4.85;;;3.03;;
151;SDS011;68;48.792;9.164;2022-11-18T10:29:44;2.85;;;2.70;;
151;SDS011;68;48.792;9.164;2022-11-18T10:32:12;3.53;;;3.08;;
151;SDS011;68;48.792;9.164;2022-11-18T10:34:45;3.35;;;3.15;;
151;SDS011;68;48.792;9.164;2022-11-18T10:37:20;5.25;;;2.95;;
151;SDS011;68;48.792;9.164;2022-11-18T10:39:51;2.90;;;2.80;;
151;SDS011;68;48.792;9.164;2022-11-18T10:42:20;5.60;;;2.70;;
151;SDS011;68;48.792;9.164;2022-11-18T10:44:52;3.95;;;2.78;;
151;SDS011;68;48.792;9.164;2022-11-18T10:47:26;3.58;;;2.60;;
151;SDS011;68;48.792;9.164;2022-11-18T10:49:55;3.35;;;2.50;;
151;SDS011;68;48.792;9.164;2022-11-18T10:52:24;14.45;;;3.08;;
151;SDS011;68;48.792;9.164;2022-11-18T10:55:06;4.55;;;2.80;;
151;SDS011;68;48.792;9.164;2022-11-18T10:57:43;2.97;;;2.60;;
151;SDS011;68;48.792;9.164;2022-11-18T11:03:00;6.78;;;3.17;;
151;SDS011;68;48.792;9.164;2022-11-18T11:05:40;5.10;;;3.38;;
151;SDS011;68;48.792;9.164;2022-11-18T11:08:17;4.05;;;3.53;;
151;SDS011;68;48.792;9.164;2022-11-18T11:10:52;4.72;;;3.30;;
151;SDS011;68;48.792;9.164;2022-11-18T11:13:21;3.78;;;3.35;;
151;SDS011;68;48.792;9.164;2022-11-18T11:15:48;4.80;;;3.50;;
151;SDS011;68;48.792;9.164;2022-11-18T11:18:19;5.75;;;3.88;;
151;SDS011;68;48.792;9.164;2022-11-18T11:21:02;6.00;;;4.20;;
151;SDS011;68;48.792;9.164;2022-11-18T11:23:29;7.22;;;4.15;;
151;SDS011;68;48.792;9.164;2022-11-18T11:26:00;5.40;;;3.97;;
151;SDS011;68;48.792;9.164;2022-11-18T11:28:32;7.05;;;4.13;;
151;SDS011;68;48.792;9.164;2022-11-18T11:31:05;8.02;;;4.03;;
151;SDS011;68;48.792;9.164;2022-11-18T11:33:40;5.57;;;3.75;;
151;SDS011;68;48.792;9.164;2022-11-18T11:36:24;4.63;;;3.60;;
151;SDS011;68;48.792;9.164;2022-11-18T11:39:04;3.83;;;3.60;;
151;SDS011;68;48.792;9.164;2022-11-18T11:41:51;4.15;;;2.95;;
151;SDS011;68;48.792;9.164;2022-11-18T11:44:28;9.77;;;3.60;;
151;SDS011;68;48.792;9.164;2022-11-18T11:47:08;5.40;;;2.83;;
151;SDS011;68;48.792;9.164;2022-11-18T11:50:00;7.85;;;3.20;;
151;SDS011;68;48.792;9.164;2022-11-18T11:52:36;2.92;;;2.72;;
151;SDS011;68;48.792;9.164;2022-11-18T11:55:15;3.70;;;2.88;;
151;SDS011;68;48.792;9.164;2022-11-18T11:57:56;3.58;;;2.53;;
151;SDS011;68;48.792;9.164;2022-11-18T12:00:40;2.95;;;2.50;;
151;SDS011;68;48.792;9.164;2022-11-18T12:03:16;5.53;;;2.40;;
151;SDS011;68;48.792;9.164;2022-11-18T12:05:54;4.25;;;3.00;;
151;SDS011;68;48.792;9.164;2022-11-18T12:08:21;3.65;;;2.40;;
151;SDS011;68;48.792;9.164;2022-11-18T12:10:50;5.45;;;2.90;;
151;SDS011;68;48.792;9.164;2022-11-18T12:13:35;3.60;;;2.72;;
151;SDS011;68;48.792;9.164;2022-11-18T12:16:09;3.20;;;2.40;;
151;SDS011;68;48.792;9.164;2022-11-18T12:18:42;4.93;;;2.50;;
151;SDS011;68;48.792;9.164;2022-11-18T12:24:28;4.45;;;2.70;;
151;SDS011;68;48.792;9.164;2022-11-18T12:26:56;3.22;;;2.70;;
151;SDS011;68;48.792;9.164;2022-11-18T12:29:26;2.65;;;2.50;;
151;SDS011;68;48.792;9.164;2022-11-18T12:31:59;2.95;;;2.50;;
151;SDS011;68;48.792;9.164;2022-11-18T12:34:28;5.85;;;2.78;;
151;SDS011;68;48.792;9.164;2022-11-18T12:40:09;4.35;;;2.70;;
151;SDS011;68;48.792;9.164;2022-11-18T12:42:49;3.90;;;2.70;;
151;SDS011;68;48.792;9.164;2022-11-18T12:48:28;6.88;;;3.03;;
151;SDS011;68;48.792;9.164;2022-11-18T12:57:09;3.63;;;3.00;;
151;SDS011;68;48.792;9.164;2022-11-18T12:59:43;4.53;;;3.20;;
151;SDS011;68;48.792;9.164;2022-11-18T13:02:22;6.63;;;3.40;;
151;SDS011;68;48.792;9.164;2022-11-18T13:05:07;4.32;;;3.10;;
151;SDS011;68;48.792;9.164;2022-11-18T13:07:39;5.00;;;3.10;;
151;SDS011;68;48.792;9.164;2022-11-18T13:10:27;3.80;;;3.20;;
151;SDS011;68;48.792;9.164;2022-11-18T13:12:57;6.28;;;3.70;;
151;SDS011;68;48.792;9.164;2022-11-18T13:15:24;6.13;;;3.40;;
151;SDS011;68;48.792;9.164;2022-11-18T13:18:12;9.32;;;3.97;;
151;SDS011;68;48.792;9.164;2022-11-18T13:20:40;7.68;;;3.35;;
151;SDS011;68;48.792;9.164;2022-11-18T13:23:22;4.05;;;3.03;;
151;SDS011;68;48.792;9.164;2022-11-18T13:26:11;7.63;;;3.50;;
151;SDS011;68;48.792;9.164;2022-11-18T13:28:43;3.80;;;3.13;;
151;SDS011;68;48.792;9.164;2022-11-18T13:31:19;13.63;;;3.80;;
151;SDS011;68;48.792;9.164;2022-11-18T13:33:52;6.32;;;3.65;;
151;SDS011;68;48.792;9.164;2022-11-18T13:36:20;7.82;;;4.18;;
151;SDS011;68;48.792;9.164;2022-11-18T13:38:54;4.32;;;3.30;;
151;SDS011;68;48.792;9.164;2022-11-18T13:41:22;6.50;;;3.33;;
151;SDS011;68;48.792;9.164;2022-11-18T13:44:08;5.90;;;3.20;;
151;SDS011;68;48.792;9.164;2022-11-18T13:46:35;4.30;;;3.30;;
151;SDS011;68;48.792;9.164;2022-11-18T13:49:09;4.35;;;3.20;;
151;SDS011;68;48.792;9.164;2022-11-18T13:51:39;3.85;;;3.20;;
151;SDS011;68;48.792;9.164;2022-11-18T13:54:06;6.45;;;3.55;;
151;SDS011;68;48.792;9.164;2022-11-18T13:56:36;3.17;;;2.92;;
151;SDS011;68;48.792;9.164;2022-11-18T13:59:11;5.00;;;3.40;;
151;SDS011;68;48.792;9.164;2022-11-18T14:01:42;4.47;;;3.05;;
151;SDS011;68;48.792;9.164;2022-11-18T14:04:15;7.40;;;3.25;;
151;SDS011;68;48.792;9.164;2022-11-18T14:06:45;5.70;;;3.35;;
151;SDS011;68;48.792;9.164;2022-11-18T14:09:17;4.70;;;3.50;;
151;SDS011;68;48.792;9.164;2022-11-18T14:11:56;5.35;;;3.30;;
151;SDS011;68;48.792;9.164;2022-11-18T14:14:28;7.75;;;3.15;;
151;SDS011;68;48.792;9.164;2022-11-18T14:17:04;3.50;;;3.00;;
151;SDS011;68;48.792;9.164;2022-11-18T14:19:42;3.78;;;2.90;;
151;SDS011;68;48.792;9.164;2022-11-18T14:22:10;3.85;;;3.10;;
151;SDS011;68;48.792;9.164;2022-11-18T14:24:39;3.88;;;2.90;;
151;SDS011;68;48.792;9.164;2022-11-18T14:35:48;5.55;;;3.10;;
151;SDS011;68;48.792;9.164;2022-11-18T14:38:18;3.33;;;3.10;;
151;SDS011;68;48.792;9.164;2022-11-18T14:40:52;4.15;;;3.22;;
151;SDS011;68;48.792;9.164;2022-11-18T14:43:20;4.53;;;3.10;;
151;SDS011;68;48.792;9.164;2022-11-18T14:45:47;4.60;;;3.20;;
151;SDS011;68;48.792;9.164;2022-11-18T14:48:15;3.78;;;3.05;;
151;SDS011;68;48.792;9.164;2022-11-18T14:50:45;5.03;;;3.97;;
151;SDS011;68;48.792;9.164;2022-11-18T14:53:14;7.18;;;3.53;;
151;SDS011;68;48.792;9.164;2022-11-18T14:55:40;3.78;;;3.28;;
151;SDS011;68;48.792;9.164;2022-11-18T14:58:10;5.97;;;3.53;;
151;SDS011;68;48.792;9.164;2022-11-18T15:00:39;3.78;;;2.97;;
151;SDS011;68;48.792;9.164;2022-11-18T15:03:06;8.05;;;3.60;;
151;SDS011;68;48.792;9.164;2022-11-18T15:05:33;4.57;;;3.33;;
151;SDS011;68;48.792;9.164;2022-11-18T15:08:00;5.18;;;3.13;;
151;SDS011;68;48.792;9.164;2022-11-18T15:10:28;3.17;;;3.00;;
151;SDS011;68;48.792;9.164;2022-11-18T15:12:55;4.90;;;3.30;;
151;SDS011;68;48.792;9.164;2022-11-18T15:15:22;4.80;;;2.85;;
151;SDS011;68;48.792;9.164;2022-11-18T15:17:49;4.80;;;3.45;;
151;SDS011;68;48.792;9.164;2022-11-18T15:20:17;6.93;;;3.25;;
151;SDS011;68;48.792;9.164;2022-11-18T15:22:45;5.65;;;3.13;;
151;SDS011;68;48.792;9.164;2022-11-18T15:25:12;5.07;;;3.55;;
151;SDS011;68;48.792;9.164;2022-11-18T15:27:40;4.88;;;3.33;;
151;SDS011;68;48.792;9.164;2022-11-18T15:30:09;5.55;;;3.58;;
151;SDS011;68;48.792;9.164;2022-11-18T15:32:37;4.72;;;3.47;;
151;SDS011;68;48.792;9.164;2022-11-18T15:35:04;5.57;;;3.60;;
151;SDS011;68;48.792;9.164;2022-11-18T15:37:32;8.07;;;3.58;;
151;SDS011;68;48.792;9.164;2022-11-18T15:39:58;6.75;;;3.85;;
151;SDS011;68;48.792;9.164;2022-11-18T15:42:25;9.02;;;4.30;;
151;SDS011;68;48.792;9.164;2022-11-18T15:44:53;5.03;;;3.80;;
151;SDS011;68;48.792;9.164;2022-11-18T15:47:20;6.30;;;4.25;;
151;SDS011;68;48.792;9.164;2022-11-18T15:49:47;8.02;;;3.80;;
151;SDS011;68;48.792;9.164;2022-11-18T15:52:15;5.63;;;3.60;;
151;SDS011;68;48.792;9.164;2022-11-18T15:54:43;6.28;;;3.80;;
151;SDS011;68;48.792;9.164;2022-11-18T15:57:09;8.45;;;4.07;;
151;SDS011;68;48.792;9.164;2022-11-18T15:59:36;5.10;;;3.92;;
151;SDS011;68;48.792;9.164;2022-11-18T16:02:04;8.45;;;4.50;;
151;SDS011;68;48.792;9.164;2022-11-18T16:04:31;7.50;;;4.40;;
151;SDS011;68;48.792;9.164;2022-11-18T16:06:58;6.47;;;4.40;;
151;SDS011;68;48.792;9.164;2022-11-18T16:09:26;9.63;;;5.20;;
151;SDS011;68;48.792;9.164;2022-11-18T16:12:14;8.25;;;5.22;;
151;SDS011;68;48.792;9.164;2022-11-18T16:14:58;7.97;;;4.90;;
151;SDS011;68;48.792;9.164;2022-11-18T16:17:44;5.57;;;4.68;;
151;SDS011;68;48.792;9.164;2022-11-18T16:20:10;7.22;;;5.10;;
151;SDS011;68;48.792;9.164;2022-11-18T16:22:37;8.48;;;4.90;;
151;SDS011;68;48.792;9.164;2022-11-18T16:25:04;6.32;;;4.57;;
151;SDS011;68;48.792;9.164;2022-11-18T16:27:33;8.05;;;4.88;;
151;SDS011;68;48.792;9.164;2022-11-18T16:30:00;11.63;;;5.05;;
151;SDS011;68;48.792;9.164;2022-11-18T16:32:28;6.57;;;4.55;;
151;SDS011;68;48.792;9.164;2022-11-18T16:34:56;4.82;;;4.03;;
151;SDS011;68;48.792;9.164;2022-11-18T16:37:23;4.90;;;3.95;;
151;SDS011;68;48.792;9.164;2022-11-18T16:39:51;8.70;;;3.90;;
151;SDS011;68;48.792;9.164;2022-11-18T16:42:17;10.95;;;4.43;;
151;SDS011;68;48.792;9.164;2022-11-18T16:44:44;5.20;;;3.70;;
151;SDS011;68;48.792;9.164;2022-11-18T16:47:12;7.75;;;4.32;;
151;SDS011;68;48.792;9.164;2022-11-18T16:49:38;7.57;;;4.22;;
151;SDS011;68;48.792;9.164;2022-11-18T16:52:07;6.95;;;4.68;;
151;SDS011;68;48.792;9.164;2022-11-18T16:54:34;13.02;;;5.28;;